sensor_id;sensor_type;location;lat;lon;timestamp;P1;durP1;ratioP1;P2;durP2;ratioP2
4597;SDS011;2311;48.646;8.906;2022-08-02T00:04:52;6.33;;;3.00;;
4597;SDS011;2311;48.646;8.906;2022-08-02T00:09:52;5.10;;;3.37;;
4597;SDS011;2311;48.646;8.906;2022-08-02T00:14:53;3.87;;;2.77;;
4597;SDS011;2311;48.646;8.906;2022-08-02T00:19:53;4.70;;;3.00;;
4597;SDS011;2311;48.646;8.906;2022-08-02T00:24:54;4.60;;;2.87;;
4597;SDS011;2311;48.646;8.906;2022-08-02T00:29:54;5.17;;;2.83;;
4597;SDS011;2311;48.646;8.906;2022-08-02T00:34:55;4.70;;;3.00;;
4597;SDS011;2311;48.646;8.906;2022-08-02T00:39:55;3.57;;;2.30;;
4597;SDS011;2311;48.646;8.906;2022-08-02T00:44:56;5.10;;;2.90;;
4597;SDS011;2311;48.646;8.906;2022-08-02T00:49:57;4.13;;;2.70;;
4597;SDS011;2311;48.646;8.906;2022-08-02T00:54:58;4.03;;;2.60;;
4597;SDS011;2311;48.646;8.906;2022-08-02T00:59:58;6.70;;;2.70;;
4597;SDS011;2311;48.646;8.906;2022-08-02T01:04:59;3.40;;;2.20;;
4597;SDS011;2311;48.646;8.906;2022-08-02T01:09:59;5.20;;;2.60;;
4597;SDS011;2311;48.646;8.906;2022-08-02T01:15:01;5.30;;;2.83;;
4597;SDS011;2311;48.646;8.906;2022-08-02T01:30:44;3.53;;;2.60;;
4597;SDS011;2311;48.646;8.906;2022-08-02T01:35:46;4.37;;;2.87;;
4597;SDS011;2311;48.646;8.906;2022-08-02T01:40:53;6.37;;;3.10;;
4597;SDS011;2311;48.646;8.906;2022-08-02T01:45:53;5.23;;;3.17;;
4597;SDS011;2311;48.646;8.906;2022-08-02T01:50:54;5.47;;;2.90;;
4597;SDS011;2311;48.646;8.906;2022-08-02T01:55:57;4.97;;;3.10;;
4597;SDS011;2311;48.646;8.906;2022-08-02T02:00:58;6.30;;;3.60;;
4597;SDS011;2311;48.646;8.906;2022-08-02T02:05:59;5.00;;;3.20;;
4597;SDS011;2311;48.646;8.906;2022-08-02T02:11:01;4.80;;;2.93;;
4597;SDS011;2311;48.646;8.906;2022-08-02T02:16:02;5.40;;;3.70;;
4597;SDS011;2311;48.646;8.906;2022-08-02T02:21:04;4.90;;;3.37;;
4597;SDS011;2311;48.646;8.906;2022-08-02T02:26:04;5.40;;;3.00;;
4597;SDS011;2311;48.646;8.906;2022-08-02T02:31:11;8.07;;;3.23;;
4597;SDS011;2311;48.646;8.906;2022-08-02T02:36:13;5.63;;;2.90;;
4597;SDS011;2311;48.646;8.906;2022-08-02T02:41:16;7.73;;;2.80;;
4597;SDS011;2311;48.646;8.906;2022-08-02T02:46:18;4.93;;;2.83;;
4597;SDS011;2311;48.646;8.906;2022-08-02T02:51:20;6.87;;;2.63;;
4597;SDS011;2311;48.646;8.906;2022-08-02T02:56:21;3.73;;;2.67;;
4597;SDS011;2311;48.646;8.906;2022-08-02T03:01:22;8.83;;;3.30;;
4597;SDS011;2311;48.646;8.906;2022-08-02T03:06:32;6.80;;;2.90;;
4597;SDS011;2311;48.646;8.906;2022-08-02T03:11:33;4.33;;;2.90;;
4597;SDS011;2311;48.646;8.906;2022-08-02T03:16:40;5.60;;;2.70;;
4597;SDS011;2311;48.646;8.906;2022-08-02T03:21:42;4.40;;;2.50;;
4597;SDS011;2311;48.646;8.906;2022-08-02T03:26:43;3.47;;;2.40;;
4597;SDS011;2311;48.646;8.906;2022-08-02T03:31:44;3.50;;;2.40;;
4597;SDS011;2311;48.646;8.906;2022-08-02T03:36:45;3.77;;;2.87;;
4597;SDS011;2311;48.646;8.906;2022-08-02T03:41:47;3.77;;;2.57;;
4597;SDS011;2311;48.646;8.906;2022-08-02T03:46:48;5.00;;;2.63;;
4597;SDS011;2311;48.646;8.906;2022-08-02T03:51:50;3.80;;;2.70;;
4597;SDS011;2311;48.646;8.906;2022-08-02T03:56:51;4.93;;;2.20;;
4597;SDS011;2311;48.646;8.906;2022-08-02T04:01:51;4.83;;;2.47;;
4597;SDS011;2311;48.646;8.906;2022-08-02T04:06:52;4.30;;;2.77;;
4597;SDS011;2311;48.646;8.906;2022-08-02T04:11:52;6.83;;;2.60;;
4597;SDS011;2311;48.646;8.906;2022-08-02T04:16:58;3.97;;;2.20;;
4597;SDS011;2311;48.646;8.906;2022-08-02T04:22:01;3.70;;;2.70;;
4597;SDS011;2311;48.646;8.906;2022-08-02T04:27:04;4.40;;;2.73;;
4597;SDS011;2311;48.646;8.906;2022-08-02T04:32:05;4.93;;;2.60;;
4597;SDS011;2311;48.646;8.906;2022-08-02T04:37:06;4.00;;;2.90;;
4597;SDS011;2311;48.646;8.906;2022-08-02T04:42:06;4.37;;;2.93;;
4597;SDS011;2311;48.646;8.906;2022-08-02T04:47:07;4.67;;;2.93;;
4597;SDS011;2311;48.646;8.906;2022-08-02T04:52:07;5.10;;;3.33;;
4597;SDS011;2311;48.646;8.906;2022-08-02T04:57:08;5.90;;;3.23;;
4597;SDS011;2311;48.646;8.906;2022-08-02T05:02:27;4.93;;;3.60;;
4597;SDS011;2311;48.646;8.906;2022-08-02T05:07:27;6.03;;;3.63;;
4597;SDS011;2311;48.646;8.906;2022-08-02T05:12:27;5.00;;;3.43;;
4597;SDS011;2311;48.646;8.906;2022-08-02T05:17:28;9.27;;;4.13;;
4597;SDS011;2311;48.646;8.906;2022-08-02T05:22:28;9.73;;;4.30;;
4597;SDS011;2311;48.646;8.906;2022-08-02T05:27:28;6.87;;;3.87;;
4597;SDS011;2311;48.646;8.906;2022-08-02T05:32:29;6.77;;;3.67;;
4597;SDS011;2311;48.646;8.906;2022-08-02T05:37:30;4.97;;;3.30;;
4597;SDS011;2311;48.646;8.906;2022-08-02T05:42:30;5.97;;;3.87;;
4597;SDS011;2311;48.646;8.906;2022-08-02T05:47:31;5.63;;;3.37;;
4597;SDS011;2311;48.646;8.906;2022-08-02T05:57:46;6.00;;;4.20;;
4597;SDS011;2311;48.646;8.906;2022-08-02T06:03:14;5.13;;;3.87;;
4597;SDS011;2311;48.646;8.906;2022-08-02T06:08:15;6.13;;;3.80;;
4597;SDS011;2311;48.646;8.906;2022-08-02T06:13:17;6.37;;;4.30;;
4597;SDS011;2311;48.646;8.906;2022-08-02T06:18:19;8.80;;;4.07;;
4597;SDS011;2311;48.646;8.906;2022-08-02T06:23:20;6.23;;;3.90;;
4597;SDS011;2311;48.646;8.906;2022-08-02T06:28:22;10.90;;;4.57;;
4597;SDS011;2311;48.646;8.906;2022-08-02T06:33:23;4.67;;;3.57;;
4597;SDS011;2311;48.646;8.906;2022-08-02T06:38:24;10.67;;;4.87;;
4597;SDS011;2311;48.646;8.906;2022-08-02T06:48:36;8.10;;;4.20;;
4597;SDS011;2311;48.646;8.906;2022-08-02T06:53:37;7.63;;;4.30;;
4597;SDS011;2311;48.646;8.906;2022-08-02T06:58:37;8.87;;;4.43;;
4597;SDS011;2311;48.646;8.906;2022-08-02T07:03:38;7.43;;;4.80;;
4597;SDS011;2311;48.646;8.906;2022-08-02T07:08:39;6.40;;;4.33;;
4597;SDS011;2311;48.646;8.906;2022-08-02T07:13:40;9.60;;;4.40;;
4597;SDS011;2311;48.646;8.906;2022-08-02T07:18:40;8.43;;;4.93;;
4597;SDS011;2311;48.646;8.906;2022-08-02T07:23:41;7.60;;;4.90;;
4597;SDS011;2311;48.646;8.906;2022-08-02T07:28:41;6.63;;;4.77;;
4597;SDS011;2311;48.646;8.906;2022-08-02T07:33:41;6.47;;;4.57;;
4597;SDS011;2311;48.646;8.906;2022-08-02T07:38:42;8.33;;;4.87;;
4597;SDS011;2311;48.646;8.906;2022-08-02T07:43:42;6.67;;;3.97;;
4597;SDS011;2311;48.646;8.906;2022-08-02T07:48:44;8.20;;;5.13;;
4597;SDS011;2311;48.646;8.906;2022-08-02T07:53:45;8.40;;;4.90;;
4597;SDS011;2311;48.646;8.906;2022-08-02T07:58:46;10.23;;;5.70;;
4597;SDS011;2311;48.646;8.906;2022-08-02T08:03:46;11.40;;;5.20;;
4597;SDS011;2311;48.646;8.906;2022-08-02T08:08:46;8.90;;;5.40;;
4597;SDS011;2311;48.646;8.906;2022-08-02T08:13:47;12.27;;;6.00;;
4597;SDS011;2311;48.646;8.906;2022-08-02T08:18:47;9.30;;;5.43;;
4597;SDS011;2311;48.646;8.906;2022-08-02T08:23:48;7.43;;;5.60;;
4597;SDS011;2311;48.646;8.906;2022-08-02T08:28:48;13.17;;;7.77;;
4597;SDS011;2311;48.646;8.906;2022-08-02T08:33:49;12.13;;;7.47;;
4597;SDS011;2311;48.646;8.906;2022-08-02T08:38:49;11.90;;;7.00;;
4597;SDS011;2311;48.646;8.906;2022-08-02T08:43:50;11.90;;;8.63;;
4597;SDS011;2311;48.646;8.906;2022-08-02T08:48:51;14.73;;;8.50;;
4597;SDS011;2311;48.646;8.906;2022-08-02T08:53:53;13.63;;;8.53;;
4597;SDS011;2311;48.646;8.906;2022-08-02T08:58:55;10.93;;;6.80;;
4597;SDS011;2311;48.646;8.906;2022-08-02T09:03:56;13.03;;;7.87;;
4597;SDS011;2311;48.646;8.906;2022-08-02T09:08:57;8.40;;;6.43;;
4597;SDS011;2311;48.646;8.906;2022-08-02T09:13:58;10.20;;;6.53;;
4597;SDS011;2311;48.646;8.906;2022-08-02T09:19:00;12.43;;;8.30;;
4597;SDS011;2311;48.646;8.906;2022-08-02T09:24:20;13.87;;;8.63;;
4597;SDS011;2311;48.646;8.906;2022-08-02T09:29:22;10.77;;;7.33;;
4597;SDS011;2311;48.646;8.906;2022-08-02T09:34:23;13.37;;;7.00;;
4597;SDS011;2311;48.646;8.906;2022-08-02T09:39:43;8.97;;;5.63;;
4597;SDS011;2311;48.646;8.906;2022-08-02T09:44:57;8.87;;;5.50;;
4597;SDS011;2311;48.646;8.906;2022-08-02T09:49:59;10.13;;;6.20;;
4597;SDS011;2311;48.646;8.906;2022-08-02T09:55:05;8.87;;;6.03;;
4597;SDS011;2311;48.646;8.906;2022-08-02T10:00:06;7.70;;;5.13;;
4597;SDS011;2311;48.646;8.906;2022-08-02T10:05:12;10.60;;;4.83;;
4597;SDS011;2311;48.646;8.906;2022-08-02T10:10:12;13.20;;;5.30;;
4597;SDS011;2311;48.646;8.906;2022-08-02T10:15:13;6.27;;;4.57;;
4597;SDS011;2311;48.646;8.906;2022-08-02T10:20:14;8.47;;;5.70;;
4597;SDS011;2311;48.646;8.906;2022-08-02T10:25:15;7.70;;;4.90;;
4597;SDS011;2311;48.646;8.906;2022-08-02T10:30:16;7.70;;;4.80;;
4597;SDS011;2311;48.646;8.906;2022-08-02T10:35:17;6.20;;;4.20;;
4597;SDS011;2311;48.646;8.906;2022-08-02T10:40:21;5.90;;;3.77;;
4597;SDS011;2311;48.646;8.906;2022-08-02T10:45:22;8.50;;;4.10;;
4597;SDS011;2311;48.646;8.906;2022-08-02T10:55:44;5.37;;;3.80;;
4597;SDS011;2311;48.646;8.906;2022-08-02T11:00:46;6.40;;;3.67;;
4597;SDS011;2311;48.646;8.906;2022-08-02T11:05:58;5.73;;;4.23;;
4597;SDS011;2311;48.646;8.906;2022-08-02T11:16:12;5.07;;;3.70;;
4597;SDS011;2311;48.646;8.906;2022-08-02T11:21:19;5.40;;;3.80;;
4597;SDS011;2311;48.646;8.906;2022-08-02T11:31:33;3.55;;;2.97;;
4597;SDS011;2311;48.646;8.906;2022-08-02T11:36:44;5.45;;;3.63;;
4597;SDS011;2311;48.646;8.906;2022-08-02T11:41:53;5.00;;;3.38;;
4597;SDS011;2311;48.646;8.906;2022-08-02T11:46:59;5.95;;;3.67;;
4597;SDS011;2311;48.646;8.906;2022-08-02T11:52:02;4.70;;;3.30;;
4597;SDS011;2311;48.646;8.906;2022-08-02T11:57:22;4.65;;;3.35;;
4597;SDS011;2311;48.646;8.906;2022-08-02T12:02:26;4.50;;;3.30;;
4597;SDS011;2311;48.646;8.906;2022-08-02T12:07:29;4.68;;;2.83;;
4597;SDS011;2311;48.646;8.906;2022-08-02T12:12:31;6.47;;;3.80;;
4597;SDS011;2311;48.646;8.906;2022-08-02T12:17:31;4.20;;;3.08;;
4597;SDS011;2311;48.646;8.906;2022-08-02T12:23:07;5.55;;;3.42;;
4597;SDS011;2311;48.646;8.906;2022-08-02T12:33:15;7.50;;;3.70;;
4597;SDS011;2311;48.646;8.906;2022-08-02T12:38:15;5.65;;;3.30;;
4597;SDS011;2311;48.646;8.906;2022-08-02T12:43:20;6.30;;;3.45;;
4597;SDS011;2311;48.646;8.906;2022-08-02T12:48:55;5.70;;;3.08;;
4597;SDS011;2311;48.646;8.906;2022-08-02T12:53:49;6.78;;;3.53;;
4597;SDS011;2311;48.646;8.906;2022-08-02T12:58:51;7.10;;;3.42;;
4597;SDS011;2311;48.646;8.906;2022-08-02T13:03:52;4.25;;;3.10;;
4597;SDS011;2311;48.646;8.906;2022-08-02T13:08:53;4.55;;;3.35;;
4597;SDS011;2311;48.646;8.906;2022-08-02T13:13:54;4.18;;;3.28;;
4597;SDS011;2311;48.646;8.906;2022-08-02T13:18:55;5.20;;;3.80;;
4597;SDS011;2311;48.646;8.906;2022-08-02T13:23:55;4.93;;;3.38;;
4597;SDS011;2311;48.646;8.906;2022-08-02T13:28:55;7.35;;;3.92;;
4597;SDS011;2311;48.646;8.906;2022-08-02T13:33:56;4.45;;;3.33;;
4597;SDS011;2311;48.646;8.906;2022-08-02T13:38:57;4.30;;;3.40;;
4597;SDS011;2311;48.646;8.906;2022-08-02T13:43:57;5.35;;;3.35;;
4597;SDS011;2311;48.646;8.906;2022-08-02T13:48:57;6.57;;;3.88;;
4597;SDS011;2311;48.646;8.906;2022-08-02T13:53:58;4.95;;;3.45;;
4597;SDS011;2311;48.646;8.906;2022-08-02T13:58:58;10.18;;;3.33;;
4597;SDS011;2311;48.646;8.906;2022-08-02T14:03:59;5.05;;;3.67;;
4597;SDS011;2311;48.646;8.906;2022-08-02T14:08:59;3.72;;;2.90;;
4597;SDS011;2311;48.646;8.906;2022-08-02T14:13:59;5.22;;;3.78;;
4597;SDS011;2311;48.646;8.906;2022-08-02T14:19:00;4.30;;;3.15;;
4597;SDS011;2311;48.646;8.906;2022-08-02T14:24:00;4.22;;;3.40;;
4597;SDS011;2311;48.646;8.906;2022-08-02T14:29:01;4.97;;;3.20;;
4597;SDS011;2311;48.646;8.906;2022-08-02T14:34:01;5.97;;;3.10;;
4597;SDS011;2311;48.646;8.906;2022-08-02T14:39:02;7.95;;;3.35;;
4597;SDS011;2311;48.646;8.906;2022-08-02T14:44:03;7.72;;;3.20;;
4597;SDS011;2311;48.646;8.906;2022-08-02T14:49:03;5.70;;;3.03;;
4597;SDS011;2311;48.646;8.906;2022-08-02T14:54:07;4.88;;;3.22;;
4597;SDS011;2311;48.646;8.906;2022-08-02T14:59:08;7.68;;;3.40;;
4597;SDS011;2311;48.646;8.906;2022-08-02T15:04:08;9.00;;;3.55;;
4597;SDS011;2311;48.646;8.906;2022-08-02T15:09:09;4.68;;;3.53;;
4597;SDS011;2311;48.646;8.906;2022-08-02T15:14:09;5.93;;;3.58;;
4597;SDS011;2311;48.646;8.906;2022-08-02T15:19:09;5.10;;;3.42;;
4597;SDS011;2311;48.646;8.906;2022-08-02T15:24:10;5.35;;;3.22;;
4597;SDS011;2311;48.646;8.906;2022-08-02T15:29:10;5.93;;;3.33;;
4597;SDS011;2311;48.646;8.906;2022-08-02T15:34:11;3.75;;;3.25;;
4597;SDS011;2311;48.646;8.906;2022-08-02T15:39:11;4.70;;;3.28;;
4597;SDS011;2311;48.646;8.906;2022-08-02T15:44:12;4.50;;;3.60;;
4597;SDS011;2311;48.646;8.906;2022-08-02T15:49:13;3.85;;;2.85;;
4597;SDS011;2311;48.646;8.906;2022-08-02T15:54:13;6.55;;;3.50;;
4597;SDS011;2311;48.646;8.906;2022-08-02T15:59:14;4.38;;;3.28;;
4597;SDS011;2311;48.646;8.906;2022-08-02T16:04:15;4.78;;;3.30;;
4597;SDS011;2311;48.646;8.906;2022-08-02T16:09:15;6.50;;;3.55;;
4597;SDS011;2311;48.646;8.906;2022-08-02T16:14:16;4.15;;;3.15;;
4597;SDS011;2311;48.646;8.906;2022-08-02T16:19:16;12.35;;;3.38;;
4597;SDS011;2311;48.646;8.906;2022-08-02T16:24:17;6.63;;;3.92;;
4597;SDS011;2311;48.646;8.906;2022-08-02T16:29:17;7.57;;;3.40;;
4597;SDS011;2311;48.646;8.906;2022-08-02T16:34:18;5.93;;;3.50;;
4597;SDS011;2311;48.646;8.906;2022-08-02T16:39:19;6.18;;;3.60;;
4597;SDS011;2311;48.646;8.906;2022-08-02T16:44:20;7.00;;;3.40;;
4597;SDS011;2311;48.646;8.906;2022-08-02T16:49:20;4.78;;;3.35;;
4597;SDS011;2311;48.646;8.906;2022-08-02T16:54:21;4.43;;;3.28;;
4597;SDS011;2311;48.646;8.906;2022-08-02T16:59:21;3.70;;;2.85;;
4597;SDS011;2311;48.646;8.906;2022-08-02T17:04:22;7.95;;;3.50;;
4597;SDS011;2311;48.646;8.906;2022-08-02T17:09:22;4.20;;;3.28;;
4597;SDS011;2311;48.646;8.906;2022-08-02T17:14:24;4.25;;;3.30;;
4597;SDS011;2311;48.646;8.906;2022-08-02T17:19:24;4.07;;;2.83;;
4597;SDS011;2311;48.646;8.906;2022-08-02T17:24:25;4.32;;;3.00;;
4597;SDS011;2311;48.646;8.906;2022-08-02T17:29:25;5.50;;;3.25;;
4597;SDS011;2311;48.646;8.906;2022-08-02T17:34:25;4.72;;;3.20;;
4597;SDS011;2311;48.646;8.906;2022-08-02T17:39:27;4.20;;;3.08;;
4597;SDS011;2311;48.646;8.906;2022-08-02T17:44:28;6.40;;;3.33;;
4597;SDS011;2311;48.646;8.906;2022-08-02T17:49:28;4.50;;;2.88;;
4597;SDS011;2311;48.646;8.906;2022-08-02T17:54:29;3.50;;;2.80;;
4597;SDS011;2311;48.646;8.906;2022-08-02T17:59:29;3.40;;;2.90;;
4597;SDS011;2311;48.646;8.906;2022-08-02T18:04:30;3.95;;;2.85;;
4597;SDS011;2311;48.646;8.906;2022-08-02T18:09:31;5.43;;;3.00;;
4597;SDS011;2311;48.646;8.906;2022-08-02T18:14:31;3.08;;;2.70;;
4597;SDS011;2311;48.646;8.906;2022-08-02T18:19:32;4.03;;;2.90;;
4597;SDS011;2311;48.646;8.906;2022-08-02T18:24:32;12.88;;;2.92;;
4597;SDS011;2311;48.646;8.906;2022-08-02T18:29:33;6.50;;;3.03;;
4597;SDS011;2311;48.646;8.906;2022-08-02T18:34:33;4.68;;;2.88;;
4597;SDS011;2311;48.646;8.906;2022-08-02T18:39:35;5.00;;;3.40;;
4597;SDS011;2311;48.646;8.906;2022-08-02T18:44:35;4.75;;;3.10;;
4597;SDS011;2311;48.646;8.906;2022-08-02T18:49:35;4.90;;;3.30;;
4597;SDS011;2311;48.646;8.906;2022-08-02T18:54:36;4.65;;;3.33;;
4597;SDS011;2311;48.646;8.906;2022-08-02T18:59:36;5.88;;;3.22;;
4597;SDS011;2311;48.646;8.906;2022-08-02T19:04:37;9.52;;;4.07;;
4597;SDS011;2311;48.646;8.906;2022-08-02T19:09:42;5.75;;;4.55;;
4597;SDS011;2311;48.646;8.906;2022-08-02T19:14:43;5.15;;;3.58;;
4597;SDS011;2311;48.646;8.906;2022-08-02T19:19:43;6.65;;;3.78;;
4597;SDS011;2311;48.646;8.906;2022-08-02T19:24:44;5.72;;;3.80;;
4597;SDS011;2311;48.646;8.906;2022-08-02T19:29:46;5.57;;;3.65;;
4597;SDS011;2311;48.646;8.906;2022-08-02T19:34:46;6.72;;;4.43;;
4597;SDS011;2311;48.646;8.906;2022-08-02T19:39:47;7.50;;;4.43;;
4597;SDS011;2311;48.646;8.906;2022-08-02T19:44:47;8.10;;;5.13;;
4597;SDS011;2311;48.646;8.906;2022-08-02T19:49:48;7.03;;;4.50;;
4597;SDS011;2311;48.646;8.906;2022-08-02T19:54:48;5.80;;;4.00;;
4597;SDS011;2311;48.646;8.906;2022-08-02T19:59:49;6.32;;;4.22;;
4597;SDS011;2311;48.646;8.906;2022-08-02T20:04:49;5.85;;;4.40;;
4597;SDS011;2311;48.646;8.906;2022-08-02T20:09:50;5.78;;;4.15;;
4597;SDS011;2311;48.646;8.906;2022-08-02T20:14:51;6.70;;;4.25;;
4597;SDS011;2311;48.646;8.906;2022-08-02T20:19:53;5.80;;;4.28;;
4597;SDS011;2311;48.646;8.906;2022-08-02T20:24:54;5.93;;;4.10;;
4597;SDS011;2311;48.646;8.906;2022-08-02T20:29:54;5.90;;;4.40;;
4597;SDS011;2311;48.646;8.906;2022-08-02T20:34:54;5.85;;;4.25;;
4597;SDS011;2311;48.646;8.906;2022-08-02T20:39:55;6.90;;;4.32;;
4597;SDS011;2311;48.646;8.906;2022-08-02T20:44:55;6.47;;;4.75;;
4597;SDS011;2311;48.646;8.906;2022-08-02T20:49:56;6.28;;;4.30;;
4597;SDS011;2311;48.646;8.906;2022-08-02T20:55:15;6.43;;;4.80;;
4597;SDS011;2311;48.646;8.906;2022-08-02T21:00:15;9.80;;;5.40;;
4597;SDS011;2311;48.646;8.906;2022-08-02T21:05:16;6.82;;;4.85;;
4597;SDS011;2311;48.646;8.906;2022-08-02T21:10:16;7.40;;;5.43;;
4597;SDS011;2311;48.646;8.906;2022-08-02T21:15:17;12.98;;;6.78;;
4597;SDS011;2311;48.646;8.906;2022-08-02T21:20:17;12.30;;;8.00;;
4597;SDS011;2311;48.646;8.906;2022-08-02T21:25:18;12.33;;;7.33;;
4597;SDS011;2311;48.646;8.906;2022-08-02T21:30:21;11.60;;;7.30;;
4597;SDS011;2311;48.646;8.906;2022-08-02T21:35:22;13.52;;;8.52;;
4597;SDS011;2311;48.646;8.906;2022-08-02T21:40:24;15.30;;;10.05;;
4597;SDS011;2311;48.646;8.906;2022-08-02T21:45:24;16.47;;;11.30;;
4597;SDS011;2311;48.646;8.906;2022-08-02T21:50:24;15.20;;;7.80;;
4597;SDS011;2311;48.646;8.906;2022-08-02T21:55:25;8.70;;;5.80;;
4597;SDS011;2311;48.646;8.906;2022-08-02T22:00:25;10.83;;;5.40;;
4597;SDS011;2311;48.646;8.906;2022-08-02T22:05:26;7.37;;;4.77;;
4597;SDS011;2311;48.646;8.906;2022-08-02T22:10:26;9.07;;;4.47;;
4597;SDS011;2311;48.646;8.906;2022-08-02T22:15:27;6.93;;;4.27;;
4597;SDS011;2311;48.646;8.906;2022-08-02T22:20:27;5.97;;;3.83;;
4597;SDS011;2311;48.646;8.906;2022-08-02T22:25:27;6.97;;;4.33;;
4597;SDS011;2311;48.646;8.906;2022-08-02T22:30:30;5.80;;;4.10;;
4597;SDS011;2311;48.646;8.906;2022-08-02T22:35:31;6.70;;;4.53;;
4597;SDS011;2311;48.646;8.906;2022-08-02T22:40:31;5.93;;;4.40;;
4597;SDS011;2311;48.646;8.906;2022-08-02T22:45:32;8.63;;;4.93;;
4597;SDS011;2311;48.646;8.906;2022-08-02T22:50:32;9.77;;;4.83;;
4597;SDS011;2311;48.646;8.906;2022-08-02T22:55:33;6.10;;;4.33;;
4597;SDS011;2311;48.646;8.906;2022-08-02T23:00:34;6.10;;;4.43;;
4597;SDS011;2311;48.646;8.906;2022-08-02T23:05:34;7.50;;;4.23;;
4597;SDS011;2311;48.646;8.906;2022-08-02T23:10:35;6.93;;;4.80;;
4597;SDS011;2311;48.646;8.906;2022-08-02T23:15:39;6.43;;;4.43;;
4597;SDS011;2311;48.646;8.906;2022-08-02T23:20:58;6.63;;;4.73;;
4597;SDS011;2311;48.646;8.906;2022-08-02T23:25:59;6.30;;;4.43;;
4597;SDS011;2311;48.646;8.906;2022-08-02T23:30:59;8.50;;;4.37;;
4597;SDS011;2311;48.646;8.906;2022-08-02T23:36:00;9.33;;;4.60;;
4597;SDS011;2311;48.646;8.906;2022-08-02T23:41:02;5.87;;;4.03;;
4597;SDS011;2311;48.646;8.906;2022-08-02T23:46:03;6.23;;;4.53;;
4597;SDS011;2311;48.646;8.906;2022-08-02T23:51:03;5.90;;;3.70;;
4597;SDS011;2311;48.646;8.906;2022-08-02T23:56:04;7.57;;;4.43;;
